Time;durP1;ratioP1;P1;durP2;ratioP2;P2;SDS_P1;SDS_P2;PMS_P1;PMS_P2;Temp;Humidity;BMP_temperature;BMP_pressure;BME280_temperature;BME280_humidity;BME280_pressure;Samples;Min_cycle;Max_cycle;Signal;HPM_P1;HPM_P2
2022/09/27 00:00:41;;;;;;;0.00;0.00;;;12.90;71.90;;;;;;5090676;28;20028;-80
2022/09/27 00:03:10;;;;;;;0.00;0.00;;;12.90;72.10;;;;;;5090917;28;20025;-80
2022/09/27 00:05:35;;;;;;;0.00;0.00;;;12.80;72.10;;;;;;5091748;28;20024;-80
2022/09/27 00:08:01;;;;;;;0.00;0.00;;;12.70;72.10;;;;;;5090952;28;20043;-80
2022/09/27 00:10:27;;;;;;;0.00;0.00;;;12.70;72.20;;;;;;5089536;28;20330;-80
2022/09/27 00:12:54;;;;;;;0.00;0.00;;;12.70;72.20;;;;;;5089655;28;20103;-80
2022/09/27 00:15:20;;;;;;;0.00;0.00;;;12.70;72.20;;;;;;5088167;28;20032;-80
2022/09/27 00:17:50;;;;;;;0.00;0.00;;;12.70;72.30;;;;;;5090242;28;20088;-80
2022/09/27 00:20:17;;;;;;;0.00;0.00;;;12.70;72.30;;;;;;5089530;28;20028;-80
2022/09/27 00:22:42;;;;;;;0.00;0.00;;;12.70;72.30;;;;;;5087038;28;20073;-80
2022/09/27 00:25:08;;;;;;;0.00;0.00;;;12.80;72.30;;;;;;5087448;28;20028;-80
2022/09/27 00:27:34;;;;;;;0.00;0.00;;;12.80;72.30;;;;;;5088611;28;20521;-80
2022/09/27 00:29:59;;;;;;;0.00;0.00;;;12.90;72.30;;;;;;5087696;28;20036;-80
2022/09/27 00:32:25;;;;;;;0.00;0.00;;;12.90;72.20;;;;;;5089082;28;20388;-80
2022/09/27 00:34:51;;;;;;;0.00;0.00;;;12.90;72.20;;;;;;5089369;28;20020;-80
2022/09/27 00:37:17;;;;;;;0.00;0.00;;;12.90;72.20;;;;;;5089197;28;20047;-80
2022/09/27 00:39:42;;;;;;;0.00;0.00;;;12.90;72.20;;;;;;5089739;28;20107;-80
2022/09/27 00:42:10;;;;;;;0.00;0.00;;;13.00;72.20;;;;;;5090492;28;20028;-80
2022/09/27 00:44:38;;;;;;;0.00;0.00;;;13.00;72.30;;;;;;5090032;28;20028;-80
2022/09/27 00:47:18;;;;;;;0.00;0.00;;;13.00;72.30;;;;;;5088581;28;20100;-80
2022/09/27 00:49:59;;;;;;;0.15;0.10;;;13.00;72.30;;;;;;5089678;28;20020;-80
2022/09/27 00:52:30;;;;;;;0.00;0.00;;;13.00;72.30;;;;;;5090007;28;20028;-80
2022/09/27 00:55:10;;;;;;;0.00;0.00;;;13.10;72.30;;;;;;5089636;28;20028;-80
2022/09/27 00:57:36;;;;;;;0.00;0.00;;;13.10;72.20;;;;;;5091482;28;20024;-80
2022/09/27 01:00:11;;;;;;;0.00;0.00;;;13.10;72.20;;;;;;5094008;28;20024;-80
2022/09/27 01:02:39;;;;;;;0.10;0.10;;;13.10;72.20;;;;;;5095747;28;20024;-80
2022/09/27 01:05:09;;;;;;;0.00;0.00;;;13.10;72.20;;;;;;5094928;28;20031;-80
2022/09/27 01:07:35;;;;;;;0.00;0.00;;;13.10;72.70;;;;;;5095630;28;20012;-80
2022/09/27 01:10:01;;;;;;;0.00;0.00;;;13.10;72.20;;;;;;5095797;28;20444;-80
2022/09/27 01:12:59;;;;;;;0.00;0.00;;;13.00;72.20;;;;;;5095515;28;20033;-80
2022/09/27 01:15:51;;;;;;;0.00;0.00;;;13.00;72.20;;;;;;5092848;28;20129;-80
2022/09/27 01:18:36;;;;;;;0.00;0.00;;;13.00;72.20;;;;;;5092410;28;20111;-80
2022/09/27 01:21:20;;;;;;;0.00;0.00;;;13.00;72.30;;;;;;5093194;28;20452;-80
2022/09/27 01:24:08;;;;;;;0.00;0.00;;;13.00;72.40;;;;;;5091518;28;20423;-80
2022/09/27 01:26:37;;;;;;;0.00;0.00;;;13.00;72.40;;;;;;5091493;28;20425;-79
2022/09/27 01:29:24;;;;;;;0.00;0.00;;;13.10;72.40;;;;;;5093246;28;20107;-80
2022/09/27 01:32:06;;;;;;;0.00;0.00;;;13.10;72.40;;;;;;5093802;28;20025;-80
2022/09/27 01:34:31;;;;;;;0.00;0.00;;;13.10;72.40;;;;;;5093561;28;20032;-80
2022/09/27 01:37:06;;;;;;;0.00;0.00;;;13.10;72.40;;;;;;5093070;28;20031;-80
2022/09/27 01:40:04;;;;;;;0.00;0.00;;;13.00;72.30;;;;;;5093421;28;20028;-79
2022/09/27 01:42:39;;;;;;;0.00;0.00;;;13.00;72.40;;;;;;5093360;28;20016;-80
2022/09/27 01:45:30;;;;;;;0.00;0.00;;;13.10;72.40;;;;;;5092739;28;20031;-80
2022/09/27 01:48:10;;;;;;;0.00;0.00;;;13.10;72.40;;;;;;5093786;28;20035;-80
2022/09/27 01:50:46;;;;;;;0.00;0.00;;;13.10;72.40;;;;;;5093766;28;20029;-79
2022/09/27 01:53:43;;;;;;;0.00;0.00;;;13.10;72.40;;;;;;5093279;28;20027;-80
2022/09/27 01:56:15;;;;;;;0.20;0.10;;;13.10;72.40;;;;;;5090745;28;20028;-80
2022/09/27 01:58:59;;;;;;;0.00;0.00;;;13.10;72.40;;;;;;5092944;28;20035;-80
2022/09/27 02:01:28;;;;;;;0.00;0.00;;;13.10;72.40;;;;;;5093910;28;20095;-80
2022/09/27 02:03:57;;;;;;;0.00;0.00;;;13.10;72.40;;;;;;5092339;28;20034;-80
2022/09/27 02:06:37;;;;;;;0.00;0.00;;;13.20;72.40;;;;;;5091087;28;20024;-80
2022/09/27 02:09:12;;;;;;;0.00;0.00;;;13.20;72.40;;;;;;5090712;28;20377;-80
2022/09/27 02:11:41;;;;;;;0.00;0.00;;;13.20;72.40;;;;;;5091629;28;20112;-80
2022/09/27 02:14:20;;;;;;;0.00;0.00;;;13.20;72.40;;;;;;5091110;28;20031;-80
2022/09/27 02:16:49;;;;;;;0.00;0.00;;;13.20;72.40;;;;;;5092331;28;20024;-80
2022/09/27 02:19:30;;;;;;;0.00;0.00;;;13.20;72.40;;;;;;5092033;28;20073;-80
2022/09/27 02:22:04;;;;;;;0.00;0.00;;;13.20;72.40;;;;;;5092067;28;20520;-80
2022/09/27 02:24:39;;;;;;;0.00;0.00;;;13.20;72.40;;;;;;5090841;28;20111;-80
2022/09/27 02:27:33;;;;;;;0.00;0.00;;;13.20;72.40;;;;;;5091247;28;20103;-80
2022/09/27 02:30:10;;;;;;;0.00;0.00;;;13.20;72.40;;;;;;5092583;28;20042;-80
2022/09/27 02:32:36;;;;;;;0.00;0.00;;;13.20;72.40;;;;;;5091783;28;20028;-80
2022/09/27 02:35:12;;;;;;;0.00;0.00;;;13.10;72.30;;;;;;5092631;28;20377;-80
2022/09/27 02:37:38;;;;;;;0.00;0.00;;;13.10;72.40;;;;;;5093559;28;20031;-80
2022/09/27 02:40:04;;;;;;;0.00;0.00;;;13.10;72.40;;;;;;5093144;28;20072;-80
2022/09/27 02:42:30;;;;;;;;;;;13.10;72.50;;;;;;5092212;28;20490;-80
2022/09/27 02:44:57;;;;;;;0.00;0.00;;;13.10;72.50;;;;;;5091309;28;19904;-80
2022/09/27 02:47:22;;;;;;;;;;;13.10;72.50;;;;;;5092688;28;20030;-80
2022/09/27 02:50:03;;;;;;;0.00;0.00;;;13.10;72.50;;;;;;5092424;28;19999;-80
2022/09/27 02:53:11;;;;;;;0.00;0.00;;;13.10;72.50;;;;;;5091300;28;20026;-79
2022/09/27 02:55:53;;;;;;;0.00;0.00;;;13.10;72.50;;;;;;5090703;28;20032;-79
2022/09/27 02:58:32;;;;;;;0.00;0.00;;;13.20;72.50;;;;;;5089992;28;20024;-80
2022/09/27 03:01:01;;;;;;;0.00;0.00;;;13.20;72.50;;;;;;5091815;28;20049;-80
2022/09/27 03:03:51;;;;;;;0.00;0.00;;;13.20;72.50;;;;;;5093178;28;20016;-80
2022/09/27 03:06:19;;;;;;;0.00;0.00;;;13.20;72.50;;;;;;5091282;28;20070;-80
2022/09/27 03:08:45;;;;;;;0.00;0.00;;;13.20;72.50;;;;;;5091364;28;20031;-79
2022/09/27 03:11:11;;;;;;;0.00;0.00;;;13.20;72.50;;;;;;5093415;28;20161;-79
2022/09/27 03:13:37;;;;;;;0.00;0.00;;;13.30;72.60;;;;;;5090741;28;20064;-80
2022/09/27 03:16:06;;;;;;;0.00;0.00;;;13.30;72.60;;;;;;5091730;28;20542;-80
2022/09/27 03:18:33;;;;;;;0.00;0.00;;;13.30;72.60;;;;;;5090682;28;20032;-80
2022/09/27 03:20:58;;;;;;;;;;;13.30;73.10;;;;;;5090972;28;20074;-80
2022/09/27 03:23:24;;;;;;;0.00;0.00;;;13.40;72.60;;;;;;5090648;28;19912;-80
2022/09/27 03:25:50;;;;;;;0.00;0.00;;;13.40;72.50;;;;;;5091752;28;20089;-80
2022/09/27 03:28:16;;;;;;;0.00;0.00;;;13.40;72.50;;;;;;5089238;28;20052;-80
2022/09/27 03:30:44;;;;;;;0.00;0.00;;;13.30;72.40;;;;;;5071872;28;20043;-80
2022/09/27 03:33:10;;;;;;;0.00;0.00;;;13.30;72.40;;;;;;5089316;28;20051;-80
2022/09/27 03:35:36;;;;;;;0.00;0.00;;;13.30;72.90;;;;;;5088353;28;20549;-80
2022/09/27 03:38:03;;;;;;;0.00;0.00;;;13.30;72.50;;;;;;5090014;28;20047;-81
2022/09/27 03:40:29;;;;;;;0.00;0.00;;;13.30;72.50;;;;;;5090313;28;20028;-80
2022/09/27 03:42:55;;;;;;;0.00;0.00;;;13.30;72.60;;;;;;5089765;28;20027;-80
2022/09/27 03:45:21;;;;;;;0.00;0.00;;;13.30;72.60;;;;;;5089860;28;20062;-80
2022/09/27 03:47:47;;;;;;;0.00;0.00;;;13.30;72.60;;;;;;5089759;28;20024;-80
2022/09/27 03:50:13;;;;;;;0.00;0.00;;;13.20;72.50;;;;;;5091816;28;20040;-80
2022/09/27 03:52:41;;;;;;;0.00;0.00;;;13.20;73.10;;;;;;5091438;28;20095;-80
2022/09/27 03:55:07;;;;;;;0.00;0.00;;;13.30;72.60;;;;;;5089633;28;20420;-80
2022/09/27 03:57:33;;;;;;;;;;;13.20;72.50;;;;;;5090909;28;20021;-80
2022/09/27 03:59:59;;;;;;;0.00;0.00;;;13.20;72.60;;;;;;5091682;28;19999;-80
2022/09/27 04:02:26;;;;;;;0.00;0.00;;;13.20;72.50;;;;;;5089373;28;20028;-80
2022/09/27 04:04:51;;;;;;;0.00;0.00;;;13.20;72.60;;;;;;5088771;28;20533;-80
2022/09/27 04:07:17;;;;;;;0.00;0.00;;;13.20;72.60;;;;;;5091160;28;20032;-80
2022/09/27 04:09:45;;;;;;;0.00;0.00;;;13.20;72.60;;;;;;5091978;28;20040;-80
2022/09/27 04:12:11;;;;;;;0.00;0.00;;;13.20;72.60;;;;;;5093906;28;20024;-80
2022/09/27 04:14:37;;;;;;;;;;;13.20;72.60;;;;;;5093078;28;20077;-80
2022/09/27 04:17:03;;;;;;;0.00;0.00;;;13.20;72.60;;;;;;5090256;28;20390;-80
2022/09/27 04:19:28;;;;;;;0.00;0.00;;;13.20;72.50;;;;;;5090692;28;20051;-80
2022/09/27 04:21:54;;;;;;;0.00;0.00;;;13.20;72.50;;;;;;5089729;28;20478;-80
2022/09/27 04:24:20;;;;;;;0.00;0.00;;;13.10;72.50;;;;;;5073367;28;20059;-80
2022/09/27 04:26:48;;;;;;;0.00;0.00;;;13.10;73.00;;;;;;5089027;28;20048;-80
2022/09/27 04:29:14;;;;;;;0.00;0.00;;;13.10;72.60;;;;;;5090739;28;20061;-80
2022/09/27 04:31:40;;;;;;;0.00;0.00;;;13.10;72.60;;;;;;5090686;28;20036;-80
2022/09/27 04:34:06;;;;;;;0.00;0.00;;;13.10;72.60;;;;;;5096827;28;20032;-80
2022/09/27 04:36:32;;;;;;;0.00;0.00;;;13.10;72.60;;;;;;5096017;28;20086;-80
2022/09/27 04:39:00;;;;;;;0.00;0.00;;;13.10;72.60;;;;;;5095203;28;20028;-80
2022/09/27 04:41:27;;;;;;;0.00;0.00;;;13.10;72.50;;;;;;5095403;28;20058;-80
2022/09/27 04:43:54;;;;;;;0.00;0.00;;;13.00;72.50;;;;;;5096466;28;20058;-80
2022/09/27 04:46:21;;;;;;;0.13;0.08;;;13.00;72.50;;;;;;5096562;28;20029;-80
2022/09/27 04:48:47;;;;;;;0.00;0.00;;;13.00;72.60;;;;;;5095097;28;20478;-79
2022/09/27 04:51:16;;;;;;;0.00;0.00;;;13.00;72.60;;;;;;5095908;28;20073;-80
2022/09/27 04:53:45;;;;;;;0.00;0.00;;;13.00;72.60;;;;;;5093253;28;20504;-80
2022/09/27 04:56:12;;;;;;;0.00;0.00;;;13.00;72.60;;;;;;5094075;28;20039;-80
2022/09/27 04:58:38;;;;;;;0.00;0.00;;;13.10;72.70;;;;;;5094330;28;20111;-80
2022/09/27 05:01:04;;;;;;;0.00;0.00;;;13.10;72.60;;;;;;5094552;28;20468;-80
2022/09/27 05:03:30;;;;;;;;;;;13.10;72.60;;;;;;5093768;28;20020;-79
2022/09/27 05:05:57;;;;;;;0.00;0.00;;;13.10;72.50;;;;;;5094983;28;19996;-80
2022/09/27 05:08:22;;;;;;;;;;;13.10;72.50;;;;;;5094194;28;20028;-80
2022/09/27 05:10:49;;;;;;;0.00;0.00;;;13.00;72.50;;;;;;5092974;28;20279;-79
2022/09/27 05:13:15;;;;;;;0.00;0.00;;;13.00;72.50;;;;;;5093885;28;20028;-79
2022/09/27 05:15:41;;;;;;;0.00;0.00;;;12.90;72.50;;;;;;5076032;28;20028;-81
2022/09/27 05:18:08;;;;;;;0.00;0.00;;;12.90;72.50;;;;;;5094508;28;20063;-78
2022/09/27 05:20:35;;;;;;;0.00;0.00;;;12.90;72.60;;;;;;5091108;28;20039;-81
2022/09/27 05:23:02;;;;;;;0.00;0.00;;;12.90;72.70;;;;;;5094122;28;20031;-79
2022/09/27 05:25:29;;;;;;;0.25;0.25;;;12.90;72.70;;;;;;5092230;28;20034;-79
2022/09/27 05:27:57;;;;;;;0.00;0.00;;;12.90;72.70;;;;;;5090578;28;20052;-79
2022/09/27 05:30:26;;;;;;;0.00;0.00;;;13.00;72.60;;;;;;5074163;28;20511;-79
2022/09/27 05:32:52;;;;;;;0.00;0.00;;;12.90;72.50;;;;;;5092105;28;20032;-80
2022/09/27 05:35:19;;;;;;;0.00;0.00;;;13.00;72.60;;;;;;5092204;28;20043;-79
2022/09/27 05:37:56;;;;;;;0.10;0.10;;;12.90;72.50;;;;;;5092268;28;20060;-79
2022/09/27 05:40:24;;;;;;;0.00;0.00;;;12.90;72.50;;;;;;5092159;28;20539;-80
2022/09/27 05:42:53;;;;;;;0.00;0.00;;;12.80;72.50;;;;;;5090936;28;20035;-80
2022/09/27 05:45:21;;;;;;;0.00;0.00;;;12.80;72.50;;;;;;5093368;28;20497;-80
2022/09/27 05:47:58;;;;;;;0.00;0.00;;;12.80;72.60;;;;;;5091860;28;20024;-79
2022/09/27 05:50:27;;;;;;;0.00;0.00;;;12.70;72.50;;;;;;5093142;28;20516;-80
2022/09/27 05:52:53;;;;;;;0.00;0.00;;;12.70;72.50;;;;;;5092092;28;20400;-80
2022/09/27 05:55:19;;;;;;;0.00;0.00;;;12.60;72.50;;;;;;5091936;28;20031;-80
2022/09/27 05:57:59;;;;;;;0.00;0.00;;;12.60;72.60;;;;;;5091432;28;20040;-81
2022/09/27 06:00:26;;;;;;;0.00;0.00;;;12.60;72.60;;;;;;5091867;28;20128;-80
2022/09/27 06:03:00;;;;;;;0.00;0.00;;;12.60;72.60;;;;;;5092775;28;20073;-80
2022/09/27 06:05:27;;;;;;;0.00;0.00;;;12.50;72.50;;;;;;5093217;28;20097;-80
2022/09/27 06:07:59;;;;;;;0.00;0.00;;;12.50;72.50;;;;;;5094837;28;20027;-80
2022/09/27 06:10:24;;;;;;;0.00;0.00;;;12.40;72.60;;;;;;5093810;28;20028;-81
2022/09/27 06:12:50;;;;;;;0.00;0.00;;;12.40;72.60;;;;;;5057902;28;20036;-81
2022/09/27 06:15:16;;;;;;;0.00;0.00;;;12.40;72.60;;;;;;5092842;28;20498;-80
2022/09/27 06:17:42;;;;;;;0.00;0.00;;;12.40;72.60;;;;;;5093427;28;20064;-80
2022/09/27 06:20:08;;;;;;;0.00;0.00;;;12.40;72.70;;;;;;5074211;28;20028;-80
2022/09/27 06:22:35;;;;;;;0.00;0.00;;;12.40;72.70;;;;;;5091798;28;20046;-80
2022/09/27 06:25:02;;;;;;;0.00;0.00;;;12.30;72.70;;;;;;5091410;28;20415;-81
2022/09/27 06:27:30;;;;;;;0.00;0.00;;;12.40;72.70;;;;;;5092092;28;20064;-80
2022/09/27 06:29:55;;;;;;;0.00;0.00;;;12.40;72.70;;;;;;5092851;28;20024;-80
2022/09/27 06:32:21;;;;;;;0.00;0.00;;;12.50;72.70;;;;;;5092967;28;20054;-80
2022/09/27 06:34:47;;;;;;;0.00;0.00;;;12.50;72.70;;;;;;5092014;28;20040;-80
2022/09/27 06:37:14;;;;;;;0.00;0.00;;;12.60;72.70;;;;;;5090214;28;20093;-81
2022/09/27 06:39:40;;;;;;;0.00;0.00;;;12.60;72.60;;;;;;5090823;28;20073;-80
2022/09/27 06:42:06;;;;;;;0.00;0.00;;;12.60;72.60;;;;;;5091144;28;20024;-81
2022/09/27 06:44:31;;;;;;;;;;;12.60;72.60;;;;;;5092853;28;20038;-81
2022/09/27 06:46:57;;;;;;;0.15;0.15;;;12.70;72.70;;;;;;5093089;28;19908;-81
2022/09/27 06:49:24;;;;;;;0.00;0.00;;;12.70;72.60;;;;;;5091960;28;20036;-80
2022/09/27 06:51:51;;;;;;;0.00;0.00;;;12.70;72.60;;;;;;5090836;28;20115;-80
2022/09/27 06:54:17;;;;;;;0.00;0.00;;;12.80;72.60;;;;;;5090203;28;20031;-81
2022/09/27 06:56:42;;;;;;;0.00;0.00;;;12.80;72.60;;;;;;5090511;28;20028;-81
2022/09/27 07:01:53;;;;;;;0.00;0.00;;;12.90;72.70;;;;;;5092113;28;20058;-81
2022/09/27 07:04:19;;;;;;;0.00;0.00;;;13.00;72.70;;;;;;5091477;28;20073;-80
2022/09/27 07:06:44;;;;;;;0.00;0.00;;;12.90;72.50;;;;;;5088660;28;20028;-80
2022/09/27 07:09:10;;;;;;;0.00;0.00;;;13.00;72.60;;;;;;5092509;28;20024;-80
2022/09/27 07:11:36;;;;;;;0.00;0.00;;;13.00;72.50;;;;;;5094565;28;20036;-81
2022/09/27 07:14:06;;;;;;;0.00;0.00;;;13.10;72.60;;;;;;5090946;28;20059;-81
2022/09/27 07:16:33;;;;;;;0.00;0.00;;;13.10;72.60;;;;;;5090642;28;20039;-80
2022/09/27 07:18:59;;;;;;;0.00;0.00;;;13.20;72.60;;;;;;5089075;28;20024;-79
2022/09/27 07:21:25;;;;;;;0.00;0.00;;;13.20;72.60;;;;;;5091653;28;20043;-80
2022/09/27 07:23:51;;;;;;;0.00;0.00;;;13.30;72.60;;;;;;5091295;28;20038;-80
2022/09/27 07:26:17;;;;;;;0.00;0.00;;;13.30;72.60;;;;;;5091020;28;20141;-79
2022/09/27 07:28:43;;;;;;;0.00;0.00;;;13.40;72.60;;;;;;5089495;28;20083;-80
2022/09/27 07:31:10;;;;;;;0.00;0.00;;;13.40;72.60;;;;;;5091214;28;20043;-79
2022/09/27 07:33:36;;;;;;;0.00;0.00;;;13.50;72.80;;;;;;5090086;28;20489;-81
2022/09/27 07:36:07;;;;;;;0.00;0.00;;;13.60;72.80;;;;;;5089617;28;20063;-78
2022/09/27 07:38:33;;;;;;;0.00;0.00;;;13.70;72.90;;;;;;5091110;28;20026;-82
2022/09/27 07:41:04;;;;;;;0.00;0.00;;;13.90;72.90;;;;;;5094361;28;20099;-80
2022/09/27 07:43:29;;;;;;;0.00;0.00;;;14.00;72.70;;;;;;5091427;28;20020;-81
2022/09/27 07:45:55;;;;;;;0.00;0.00;;;14.20;72.70;;;;;;5089276;28;20548;-81
2022/09/27 07:48:21;;;;;;;;;;;14.30;72.60;;;;;;5079371;28;20055;-80
2022/09/27 07:50:47;;;;;;;0.00;0.00;;;14.30;72.50;;;;;;5084818;28;20479;-80
2022/09/27 07:53:12;;;;;;;0.00;0.00;;;14.40;72.60;;;;;;5091340;28;20031;-79
2022/09/27 07:55:39;;;;;;;0.00;0.00;;;14.50;72.60;;;;;;5087411;28;20060;-80
2022/09/27 07:58:10;;;;;;;0.00;0.00;;;14.60;72.60;;;;;;5086958;28;20028;-79
2022/09/27 08:00:39;;;;;;;0.00;0.00;;;14.70;72.60;;;;;;5091203;28;20048;-80
2022/09/27 08:03:14;;;;;;;0.00;0.00;;;14.70;72.60;;;;;;5091069;28;20027;-80
2022/09/27 08:05:40;;;;;;;0.00;0.00;;;14.80;72.70;;;;;;5074081;28;20442;-80
2022/09/27 08:08:06;;;;;;;0.00;0.00;;;14.90;72.70;;;;;;5072976;28;20382;-80
2022/09/27 08:10:33;;;;;;;0.00;0.00;;;14.90;72.60;;;;;;5055795;28;20032;-78
2022/09/27 08:13:02;;;;;;;0.00;0.00;;;14.90;72.60;;;;;;5074428;28;20040;-79
2022/09/27 08:15:29;;;;;;;0.00;0.00;;;15.00;72.70;;;;;;5073399;28;20057;-79
2022/09/27 08:17:55;;;;;;;0.00;0.00;;;15.00;72.80;;;;;;5074513;28;20020;-79
2022/09/27 08:20:21;;;;;;;0.00;0.00;;;15.10;72.70;;;;;;5074889;28;20078;-80
2022/09/27 08:22:47;;;;;;;0.00;0.00;;;15.10;72.70;;;;;;5079010;28;20090;-80
2022/09/27 08:25:13;;;;;;;0.00;0.00;;;15.10;72.70;;;;;;5081638;28;20405;-80
2022/09/27 08:27:40;;;;;;;0.00;0.00;;;15.10;72.70;;;;;;5062698;28;20508;-81
2022/09/27 08:30:06;;;;;;;0.00;0.00;;;15.10;72.80;;;;;;5081962;28;20112;-81
2022/09/27 08:32:32;;;;;;;;;;;15.10;72.80;;;;;;5074075;28;20741;-81
2022/09/27 08:34:58;;;;;;;0.00;0.00;;;15.10;72.80;;;;;;5069843;28;20325;-81
2022/09/27 08:37:24;;;;;;;0.00;0.00;;;15.00;72.80;;;;;;5069545;28;20032;-80
2022/09/27 08:39:50;;;;;;;0.00;0.00;;;15.10;72.90;;;;;;5070680;28;20064;-81
2022/09/27 08:42:39;;;;;;;0.00;0.00;;;15.10;72.90;;;;;;5069561;28;20032;-81
2022/09/27 08:45:21;;;;;;;0.00;0.00;;;15.20;72.90;;;;;;5070822;28;20095;-81
2022/09/27 08:47:59;;;;;;;0.00;0.00;;;15.30;72.90;;;;;;5069811;28;20025;-77
2022/09/27 08:50:27;;;;;;;0.00;0.00;;;15.30;72.80;;;;;;5079204;28;20070;-72
2022/09/27 08:53:20;;;;;;;0.00;0.00;;;15.30;72.70;;;;;;5077609;28;20120;-76
2022/09/27 08:55:58;;;;;;;0.00;0.00;;;15.30;72.70;;;;;;5088509;28;20048;-76
2022/09/27 08:58:28;;;;;;;0.00;0.00;;;15.20;72.70;;;;;;5079485;28;20028;-76
2022/09/27 09:01:05;;;;;;;0.00;0.00;;;15.20;72.80;;;;;;5085759;28;20522;-74
2022/09/27 09:03:35;;;;;;;0.20;0.17;;;15.20;72.90;;;;;;5083730;28;20054;-77
2022/09/27 09:06:27;;;;;;;0.00;0.00;;;15.20;72.80;;;;;;5086062;28;20441;-77
2022/09/27 09:09:15;;;;;;;0.00;0.00;;;15.20;72.80;;;;;;5076904;28;20030;-77
2022/09/27 09:15:09;;;;;;;0.00;0.00;;;15.30;72.90;;;;;;5085615;28;20424;-78
2022/09/27 09:17:44;;;;;;;0.00;0.00;;;15.40;72.90;;;;;;5076623;28;20020;-77
2022/09/27 09:20:38;;;;;;;0.00;0.00;;;15.50;73.00;;;;;;5090559;28;20121;-76
2022/09/27 09:24:00;;;;;;;0.00;0.00;;;15.60;73.00;;;;;;5078081;28;20062;-77
2022/09/27 09:26:50;;;;;;;0.00;0.00;;;15.60;72.90;;;;;;5064905;28;20055;-77
2022/09/27 09:29:39;;;;;;;0.00;0.00;;;15.70;72.90;;;;;;5064879;28;20179;-77
2022/09/27 09:32:14;;;;;;;0.00;0.00;;;15.70;73.50;;;;;;5071919;28;20493;-76
2022/09/27 09:34:45;;;;;;;0.00;0.00;;;15.80;73.00;;;;;;5072907;28;20090;-76
2022/09/27 09:37:41;;;;;;;0.00;0.00;;;15.90;72.90;;;;;;5074768;28;20362;-77
2022/09/27 09:40:25;;;;;;;0.00;0.00;;;15.90;72.80;;;;;;5073514;28;20028;-77
2022/09/27 09:43:15;;;;;;;0.00;0.00;;;15.90;72.70;;;;;;5079245;28;20054;-77
2022/09/27 09:46:01;;;;;;;0.00;0.00;;;15.80;72.80;;;;;;5083466;28;20016;-77
2022/09/27 09:48:42;;;;;;;0.00;0.00;;;15.80;72.90;;;;;;5081385;28;20024;-76
2022/09/27 09:51:23;;;;;;;0.00;0.00;;;15.90;73.00;;;;;;5078248;28;20030;-77
2022/09/27 09:53:55;;;;;;;0.00;0.00;;;15.90;73.00;;;;;;5075733;28;20133;-77
2022/09/27 09:56:34;;;;;;;0.00;0.00;;;16.00;73.10;;;;;;5081447;28;20112;-79
2022/09/27 09:59:20;;;;;;;0.00;0.00;;;16.10;72.90;;;;;;5080306;28;20008;-77
2022/09/27 10:01:47;;;;;;;0.00;0.00;;;16.10;72.80;;;;;;5070068;28;20355;-79
2022/09/27 10:04:25;;;;;;;0.00;0.00;;;16.10;72.80;;;;;;5069347;28;20025;-77
2022/09/27 10:06:52;;;;;;;0.00;0.00;;;16.10;72.80;;;;;;5071387;28;20024;-77
2022/09/27 10:09:23;;;;;;;0.00;0.00;;;16.20;73.00;;;;;;5070335;28;20051;-76
2022/09/27 10:11:49;;;;;;;0.00;0.00;;;16.20;73.00;;;;;;5070977;28;20117;-78
2022/09/27 10:14:17;;;;;;;0.00;0.00;;;16.30;72.80;;;;;;5069057;28;20119;-78
2022/09/27 10:16:57;;;;;;;0.00;0.00;;;16.20;72.80;;;;;;5070242;28;20035;-78
2022/09/27 10:19:36;;;;;;;0.00;0.00;;;16.20;72.90;;;;;;5070309;28;20067;-78
2022/09/27 10:22:28;;;;;;;0.00;0.00;;;16.20;72.90;;;;;;5070070;28;20426;-76
2022/09/27 10:24:58;;;;;;;0.00;0.00;;;16.20;72.80;;;;;;5068426;28;20025;-76
2022/09/27 10:27:25;;;;;;;0.00;0.00;;;16.10;72.80;;;;;;5069316;28;20083;-76
2022/09/27 10:29:58;;;;;;;0.00;0.00;;;16.00;72.90;;;;;;5068871;28;20530;-77
2022/09/27 10:32:36;;;;;;;0.00;0.00;;;16.00;73.00;;;;;;5069819;28;20078;-76
2022/09/27 10:35:29;;;;;;;0.00;0.00;;;16.00;73.10;;;;;;5069875;28;20028;-76
2022/09/27 10:38:24;;;;;;;0.20;0.10;;;16.00;73.10;;;;;;5069029;28;20369;-74
2022/09/27 10:40:54;;;;;;;0.00;0.00;;;16.00;73.10;;;;;;5068684;28;20024;-78
2022/09/27 10:43:35;;;;;;;0.00;0.00;;;15.90;73.00;;;;;;5069659;28;20051;-80
2022/09/27 10:46:15;;;;;;;6.20;0.40;;;15.80;73.10;;;;;;5070129;28;20033;-78
2022/09/27 10:48:41;;;;;;;0.00;0.00;;;15.80;73.20;;;;;;5069703;28;20028;-76
2022/09/27 10:51:28;;;;;;;0.00;0.00;;;15.70;73.20;;;;;;5068663;28;20446;-77
2022/09/27 10:53:57;;;;;;;0.00;0.00;;;15.70;73.30;;;;;;5069831;28;20070;-78
2022/09/27 10:56:29;;;;;;;0.00;0.00;;;15.80;73.80;;;;;;5076314;28;20514;-78
2022/09/27 10:58:58;;;;;;;0.00;0.00;;;15.90;73.20;;;;;;5070810;28;20430;-78
2022/09/27 11:01:26;;;;;;;0.10;0.10;;;15.90;73.30;;;;;;5080568;28;20024;-82
2022/09/27 11:03:56;;;;;;;0.00;0.00;;;16.00;73.30;;;;;;5063172;28;20035;-81
2022/09/27 11:06:22;;;;;;;0.10;0.10;;;16.10;73.40;;;;;;5068445;28;20032;-77
2022/09/27 11:08:51;;;;;;;0.00;0.00;;;16.30;73.30;;;;;;5068038;28;20025;-79
2022/09/27 11:11:20;;;;;;;0.00;0.00;;;16.40;73.20;;;;;;5069189;28;20146;-79
2022/09/27 11:14:19;;;;;;;0.00;0.00;;;16.50;73.10;;;;;;5068520;28;20028;-81
2022/09/27 11:17:07;;;;;;;0.00;0.00;;;16.50;73.00;;;;;;5073077;28;20020;-79
2022/09/27 11:19:52;;;;;;;0.00;0.00;;;16.50;73.00;;;;;;5078831;28;20017;-79
2022/09/27 11:22:40;;;;;;;0.00;0.00;;;16.60;73.10;;;;;;5089131;28;20615;-81
2022/09/27 11:25:33;;;;;;;0.00;0.00;;;16.70;73.20;;;;;;5090357;28;20096;-80
2022/09/27 11:28:24;;;;;;;0.00;0.00;;;16.70;73.00;;;;;;5088950;28;20655;-76
2022/09/27 11:31:02;;;;;;;0.00;0.00;;;16.80;73.00;;;;;;5089308;28;20103;-78
2022/09/27 11:33:32;;;;;;;0.00;0.00;;;16.80;72.90;;;;;;5088983;28;20051;-77
2022/09/27 11:36:12;;;;;;;0.00;0.00;;;16.80;73.10;;;;;;5088872;28;20075;-77
2022/09/27 11:38:56;;;;;;;0.00;0.00;;;16.80;73.10;;;;;;5086902;28;20035;-78
2022/09/27 11:41:41;;;;;;;0.00;0.00;;;16.80;73.00;;;;;;5088817;28;20318;-77
2022/09/27 11:44:40;;;;;;;0.00;0.00;;;16.90;73.00;;;;;;5088771;28;20024;-76
2022/09/27 11:47:32;;;;;;;0.00;0.00;;;17.00;73.10;;;;;;5088432;28;20024;-77
2022/09/27 11:50:32;;;;;;;0.00;0.00;;;17.00;73.00;;;;;;5088477;28;20036;-78
2022/09/27 11:53:23;;;;;;;0.00;0.00;;;17.00;73.00;;;;;;5087940;28;20024;-77
2022/09/27 11:56:07;;;;;;;0.00;0.00;;;17.00;72.90;;;;;;5087741;28;20028;-75
2022/09/27 11:58:43;;;;;;;0.00;0.00;;;17.00;72.90;;;;;;5088025;28;20108;-77
2022/09/27 12:01:09;;;;;;;0.00;0.00;;;16.90;72.80;;;;;;5088456;28;20373;-77
2022/09/27 12:04:03;;;;;;;0.00;0.00;;;16.80;72.90;;;;;;5088681;28;20107;-77
2022/09/27 12:06:48;;;;;;;0.00;0.00;;;16.80;73.00;;;;;;5087123;28;20039;-78
2022/09/27 12:09:22;;;;;;;0.00;0.00;;;16.70;73.10;;;;;;5087792;28;20065;-74
2022/09/27 12:12:08;;;;;;;0.00;0.00;;;16.80;73.20;;;;;;5087957;28;20028;-78
2022/09/27 12:14:46;;;;;;;0.00;0.00;;;16.80;73.00;;;;;;5088793;28;20020;-77
2022/09/27 12:17:22;;;;;;;0.00;0.00;;;16.80;73.00;;;;;;5085264;28;20304;-77
2022/09/27 12:19:54;;;;;;;0.00;0.00;;;16.80;73.00;;;;;;5079845;28;20082;-77
2022/09/27 12:22:51;;;;;;;0.00;0.00;;;16.90;73.40;;;;;;5088333;28;20105;-77
2022/09/27 12:25:17;;;;;;;;;;;16.80;72.80;;;;;;5076564;28;20129;-77
2022/09/27 12:27:48;;;;;;;0.00;0.00;;;16.80;72.90;;;;;;5084437;28;19999;-77
2022/09/27 12:30:14;;;;;;;0.00;0.00;;;16.80;72.80;;;;;;5080776;28;20039;-78
2022/09/27 12:32:48;;;;;;;0.00;0.00;;;16.70;72.80;;;;;;5076535;28;20020;-78
2022/09/27 12:35:20;;;;;;;0.00;0.00;;;16.80;73.00;;;;;;5084244;28;20036;-77
2022/09/27 12:37:58;;;;;;;0.00;0.00;;;16.70;73.00;;;;;;5081549;28;20023;-76
2022/09/27 12:40:37;;;;;;;0.00;0.00;;;16.70;72.80;;;;;;5067835;28;20021;-78
2022/09/27 12:43:16;;;;;;;0.00;0.00;;;16.60;72.70;;;;;;5067043;28;20032;-77
2022/09/27 12:46:14;;;;;;;0.00;0.00;;;16.50;73.00;;;;;;5068344;28;20116;-77
2022/09/27 12:49:04;;;;;;;0.00;0.00;;;16.50;72.80;;;;;;5066653;28;20028;-78
2022/09/27 12:52:07;;;;;;;0.00;0.00;;;16.40;73.00;;;;;;5066919;28;20025;-79
2022/09/27 12:54:51;;;;;;;0.00;0.00;;;16.40;73.10;;;;;;5067559;28;20126;-78
2022/09/27 12:57:37;;;;;;;0.00;0.00;;;16.40;73.10;;;;;;5072087;28;20422;-77
2022/09/27 13:00:15;;;;;;;0.00;0.00;;;16.40;73.00;;;;;;5070646;28;20025;-77
2022/09/27 13:03:15;;;;;;;0.00;0.00;;;16.40;73.00;;;;;;5071943;28;20094;-76
2022/09/27 13:06:15;;;;;;;0.00;0.00;;;16.40;73.00;;;;;;5070481;28;20529;-76
2022/09/27 13:09:26;;;;;;;0.00;0.00;;;16.50;73.00;;;;;;5070142;28;20029;-77
2022/09/27 13:12:05;;;;;;;1.00;0.47;;;16.50;72.90;;;;;;5069383;28;20056;-77
2022/09/27 13:14:49;;;;;;;0.00;0.00;;;16.50;72.90;;;;;;5071508;28;20059;-77
2022/09/27 13:17:39;;;;;;;0.00;0.00;;;16.60;73.00;;;;;;5069969;28;20428;-76
2022/09/27 13:20:35;;;;;;;0.00;0.00;;;16.70;72.90;;;;;;5071526;28;20109;-77
2022/09/27 13:23:14;;;;;;;0.00;0.00;;;16.60;72.60;;;;;;5070157;28;20052;-78
2022/09/27 13:25:56;;;;;;;0.00;0.00;;;16.50;72.70;;;;;;5069474;28;20074;-75
2022/09/27 13:28:31;;;;;;;0.00;0.00;;;16.40;72.70;;;;;;5069562;28;20048;-77